Time;durP1;ratioP1;P1;durP2;ratioP2;P2;SDS_P1;SDS_P2;PMS_P1;PMS_P2;Temp;Humidity;BMP_temperature;BMP_pressure;BME280_temperature;BME280_humidity;BME280_pressure;Samples;Min_cycle;Max_cycle;Signal;HPM_P1;HPM_P2
2022/08/13 00:00:35;;;;;;;5.32;5.05;;;;;;;20.97;44.55;101472.00;6048193;23;20030;-74
2022/08/13 00:03:13;;;;;;;7.93;7.53;;;;;;;20.05;44.72;101320.47;6017901;23;20002;-75
2022/08/13 00:06:04;;;;;;;6.65;6.35;;;;;;;19.82;44.79;101321.50;6048996;23;20022;-74
2022/08/13 00:08:33;;;;;;;5.28;5.07;;;;;;;20.74;44.88;101465.06;6001488;23;20031;-75
2022/08/13 00:11:00;;;;;;;6.45;6.15;;;;;;;20.40;45.74;101430.50;6047214;23;20563;-75
2022/08/13 00:13:27;;;;;;;5.40;5.20;;;;;;;20.14;46.30;101404.16;6004135;23;20041;-75
2022/08/13 00:16:09;;;;;;;6.38;6.07;;;;;;;19.37;47.77;101294.94;6042150;23;20652;-75
2022/08/13 00:18:37;;;;;;;5.30;5.10;;;;;;;19.29;47.58;101312.38;6011811;23;20079;-75
2022/08/13 00:21:07;;;;;;;6.95;6.65;;;;;;;18.99;48.46;101275.72;6043335;23;20088;-75
2022/08/13 00:23:37;;;;;;;5.45;5.25;;;;;;;19.37;48.34;101351.69;6033583;23;20020;-75
2022/08/13 00:26:25;;;;;;;5.88;5.50;;;;;;;20.09;49.63;101478.31;6053059;23;20037;-75
2022/08/13 00:29:00;;;;;;;6.70;6.40;;;;;;;18.19;50.33;101175.56;6022270;23;20027;-76
2022/08/13 00:31:27;;;;;;;5.55;5.30;;;;;;;19.92;50.32;101483.16;6055974;23;20066;-76
2022/08/13 00:33:58;;;;;;;5.68;5.38;;;;;;;19.58;50.61;101436.97;6020037;23;20223;-76
2022/08/13 00:36:34;;;;;;;5.30;5.07;;;;;;;19.76;50.65;101480.00;6039137;23;20049;-75
2022/08/13 00:39:06;;;;;;;6.60;6.30;;;;;;;19.18;50.60;101391.34;6021375;23;20591;-74
2022/08/13 00:41:37;;;;;;;5.50;5.30;;;;;;;18.34;50.60;101285.13;6016824;23;20046;-75
2022/08/13 00:44:24;;;;;;;5.47;5.20;;;;;;;19.38;50.93;101464.31;6074104;23;20487;-77
2022/08/13 00:48:41;;;;;;;5.10;4.90;;;;;;;18.95;50.82;101391.31;6049788;23;20408;-76
2022/08/13 00:49:47;;;;;;;5.00;4.80;;;;;;;17.96;51.25;101233.09;6070742;23;20018;-76
2022/08/13 00:55:24;;;;;;;5.22;5.00;;;;;;;19.04;51.37;101422.53;6039579;23;19918;-77
2022/08/13 00:57:55;;;;;;;5.80;5.50;;;;;;;19.28;51.79;101461.50;6033942;23;20019;-77
2022/08/13 01:00:24;;;;;;;5.35;5.15;;;;;;;19.16;51.22;101443.84;6005653;23;20082;-77
2022/08/13 01:02:54;;;;;;;4.95;4.75;;;;;;;18.94;51.82;101413.53;6033973;23;20011;-77
2022/08/13 01:05:24;;;;;;;5.30;5.10;;;;;;;19.19;52.12;101463.06;6016760;23;20023;-77
2022/08/13 01:07:55;;;;;;;5.47;5.20;;;;;;;19.18;51.86;101464.03;6001601;23;20500;-77
2022/08/13 01:10:25;;;;;;;5.10;4.90;;;;;;;19.17;51.61;101440.22;6029270;23;20081;-77
2022/08/13 01:12:54;;;;;;;5.25;5.03;;;;;;;18.95;51.69;101409.94;6006682;23;20122;-77
2022/08/13 01:15:23;;;;;;;5.10;4.90;;;;;;;19.14;51.89;101441.28;6027158;23;20022;-75
2022/08/13 01:17:55;;;;;;;5.10;4.90;;;;;;;19.09;51.81;101436.31;6010731;23;20015;-76
2022/08/13 01:20:26;;;;;;;;;;;;;;;19.02;52.36;101435.06;6031438;23;20429;-76
2022/08/13 01:23:01;;;;;;;6.05;5.75;;;;;;;17.85;52.71;101275.50;6010736;23;19914;-75
2022/08/13 01:25:28;;;;;;;5.63;5.43;;;;;;;18.61;53.07;101398.31;6027000;23;20139;-75
2022/08/13 01:27:55;;;;;;;5.35;5.15;;;;;;;18.80;52.64;101435.84;6042442;23;20404;-74
2022/08/13 01:30:24;;;;;;;5.10;4.90;;;;;;;18.61;52.67;101423.06;6039546;23;20019;-75
2022/08/13 01:32:51;;;;;;;5.60;5.30;;;;;;;18.71;52.97;101439.19;6041895;23;20498;-78
2022/08/13 01:35:25;;;;;;;5.15;4.95;;;;;;;18.69;52.81;101438.47;6023647;23;20500;-77
2022/08/13 01:37:57;;;;;;;5.35;4.90;;;;;;;18.66;53.18;101444.00;6008123;23;20029;-74
2022/08/13 01:40:32;;;;;;;5.10;4.90;;;;;;;18.59;54.78;101446.25;6023318;23;20066;-77
2022/08/13 01:43:03;;;;;;;6.00;5.70;;;;;;;18.53;54.40;101438.75;6036261;23;20034;-77
2022/08/13 01:45:49;;;;;;;5.30;5.10;;;;;;;18.30;55.85;101413.84;6041663;23;20231;-77
2022/08/13 01:51:08;;;;;;;6.00;5.70;;;;;;;17.92;55.14;101361.72;6030947;23;20091;-77
2022/08/13 01:53:46;;;;;;;5.32;5.13;;;;;;;17.97;55.42;101383.50;6043316;23;20039;-77
2022/08/13 01:56:16;;;;;;;5.00;4.80;;;;;;;18.39;55.50;101441.59;6030473;23;20011;-77
2022/08/13 01:58:47;;;;;;;4.88;4.68;;;;;;;18.35;56.03;101443.59;6037721;23;20093;-77
2022/08/13 02:01:33;;;;;;;5.13;4.93;;;;;;;17.74;56.06;101340.00;6045658;23;20029;-76
2022/08/13 02:04:13;;;;;;;6.07;5.78;;;;;;;18.33;55.86;101432.25;6003898;23;20073;-77
2022/08/13 02:06:49;;;;;;;5.10;4.90;;;;;;;18.20;56.40;101432.31;6038074;23;20032;-77
2022/08/13 02:09:20;;;;;;;17.95;17.05;;;;;;;17.21;56.37;101294.25;5963736;23;20210;-74
2022/08/13 02:12:10;;;;;;;6.15;5.85;;;;;;;17.99;56.54;101417.91;6005763;23;20105;-75
2022/08/13 02:14:38;;;;;;;5.28;5.07;;;;;;;18.14;56.51;101443.34;6042351;23;20330;-77
2022/08/13 02:17:27;;;;;;;6.38;6.07;;;;;;;18.10;57.09;101448.06;6016592;23;20078;-77
2022/08/13 02:20:17;;;;;;;5.28;5.07;;;;;;;17.61;56.85;101360.41;6000917;23;20449;-74
2022/08/13 02:22:46;;;;;;;5.23;4.93;;;;;;;18.04;57.21;101445.84;6004412;23;20402;-75
2022/08/13 02:25:16;;;;;;;5.50;5.30;;;;;;;18.00;57.51;101447.03;6037196;23;20304;-75
2022/08/13 02:27:43;;;;;;;5.32;5.10;;;;;;;17.98;57.48;101445.41;6030512;23;20286;-77
2022/08/13 02:30:26;;;;;;;5.30;5.10;;;;;;;17.82;57.95;101422.59;6030689;23;20023;-75
2022/08/13 02:32:54;;;;;;;5.10;4.90;;;;;;;17.35;57.49;101349.81;6008855;23;20026;-75
2022/08/13 02:35:23;;;;;;;5.50;5.20;;;;;;;16.99;57.41;101292.25;6036545;23;20023;-76
2022/08/13 02:37:51;;;;;;;5.40;5.20;;;;;;;17.89;58.46;101444.28;6034204;23;20387;-76
2022/08/13 02:43:08;;;;;;;5.95;5.65;;;;;;;17.71;59.73;101431.31;6028281;23;20512;-75
2022/08/13 02:45:35;;;;;;;5.10;4.90;;;;;;;16.24;60.73;101198.41;6029648;23;20061;-75
2022/08/13 02:48:05;;;;;;;6.10;5.80;;;;;;;17.69;60.62;101440.34;6033437;23;20313;-76
2022/08/13 02:50:45;;;;;;;5.10;4.90;;;;;;;17.15;60.66;101369.78;6004042;23;20056;-75
2022/08/13 02:53:19;;;;;;;5.20;5.00;;;;;;;17.55;61.61;101444.81;6020493;23;20058;-76
2022/08/13 02:55:56;;;;;;;5.60;5.35;;;;;;;16.83;61.47;101334.88;6012451;23;20088;-75
2022/08/13 02:58:22;;;;;;;5.13;4.93;;;;;;;17.19;61.77;101397.78;6026369;23;20018;-75
2022/08/13 03:00:51;;;;;;;5.10;4.90;;;;;;;16.98;61.06;101351.53;6043146;23;20248;-76
2022/08/13 03:03:21;;;;;;;5.10;4.90;;;;;;;17.41;62.29;101430.81;6023256;23;20172;-75
2022/08/13 03:05:49;;;;;;;5.10;4.90;;;;;;;17.18;62.40;101409.38;6013241;23;20016;-75
2022/08/13 03:08:27;;;;;;;5.25;5.05;;;;;;;17.29;62.59;101430.69;6032900;23;20313;-75
2022/08/13 03:11:08;;;;;;;5.35;5.10;;;;;;;17.11;63.20;101414.22;6033795;23;20437;-75
2022/08/13 03:13:40;;;;;;;5.43;5.13;;;;;;;17.21;62.66;101435.66;6027160;23;20007;-77
2022/08/13 03:16:14;;;;;;;5.50;5.20;;;;;;;17.11;62.42;101421.34;6033605;23;20018;-75
2022/08/13 03:18:43;;;;;;;;;;;;;;;17.15;63.53;101434.28;6027544;23;20011;-75
2022/08/13 03:21:22;;;;;;;5.35;5.15;;;;;;;17.13;63.77;101430.88;6033521;23;19918;-76
2022/08/13 03:24:15;;;;;;;6.03;5.72;;;;;;;16.95;64.14;101410.94;6022762;23;20480;-75
2022/08/13 03:26:59;;;;;;;5.10;4.90;;;;;;;16.61;64.42;101360.16;6033398;23;20017;-74
2022/08/13 03:29:28;;;;;;;4.97;4.78;;;;;;;17.02;64.74;101437.88;6027043;23;20514;-75
2022/08/13 03:32:15;;;;;;;5.00;4.80;;;;;;;16.54;63.96;101365.03;6037934;23;20322;-75
2022/08/13 03:34:43;;;;;;;5.10;4.90;;;;;;;16.64;64.97;101383.81;6039330;23;20084;-75
2022/08/13 03:37:10;;;;;;;5.35;5.05;;;;;;;16.40;64.68;101353.63;6023597;23;20029;-76
2022/08/13 03:39:39;;;;;;;6.15;5.00;;;;;;;16.65;65.11;101396.09;6024343;23;20014;-76
2022/08/13 03:42:07;;;;;;;5.05;4.85;;;;;;;16.90;65.42;101434.28;6033561;23;20023;-74
2022/08/13 03:44:36;;;;;;;5.03;4.82;;;;;;;16.85;65.63;101436.38;6026427;23;20325;-75
2022/08/13 03:47:04;;;;;;;5.70;5.40;;;;;;;16.64;65.81;101404.16;6011588;23;20069;-76
2022/08/13 03:49:51;;;;;;;5.10;4.90;;;;;;;16.78;66.37;101438.56;6025752;23;20086;-75
2022/08/13 03:52:18;;;;;;;4.97;4.78;;;;;;;16.74;66.14;101437.91;6040913;23;20451;-77
2022/08/13 03:55:04;;;;;;;5.82;5.53;;;;;;;16.44;66.75;101389.59;6014666;23;20085;-75
2022/08/13 03:57:39;;;;;;;4.90;4.70;;;;;;;16.51;66.84;101412.91;6033662;23;20642;-77
2022/08/13 04:00:28;;;;;;;4.73;4.53;;;;;;;16.58;67.42;101434.56;6004716;23;20397;-77
2022/08/13 04:02:56;;;;;;;5.13;4.93;;;;;;;15.85;66.35;101324.50;6033677;23;20029;-75
2022/08/13 04:05:25;;;;;;;5.38;5.07;;;;;;;16.46;66.04;101441.50;6011359;23;20097;-76
2022/08/13 04:08:12;;;;;;;5.47;5.28;;;;;;;16.42;66.96;101436.53;6002438;23;20019;-76
2022/08/13 04:10:42;;;;;;;5.20;4.90;;;;;;;16.29;67.41;101423.22;6001727;23;20061;-76
2022/08/13 04:13:20;;;;;;;5.07;4.88;;;;;;;15.95;67.80;101381.19;6005791;23;20089;-76
2022/08/13 04:16:20;;;;;;;5.47;5.28;;;;;;;16.34;68.52;101432.56;6036406;23;20057;-76
2022/08/13 04:18:56;;;;;;;5.40;5.10;;;;;;;15.92;67.51;101368.19;6012350;23;20508;-75
2022/08/13 04:21:30;;;;;;;5.40;5.10;;;;;;;16.39;67.11;101442.84;6014666;23;20350;-75
2022/08/13 04:24:02;;;;;;;5.93;5.63;;;;;;;16.33;66.97;101416.75;6033303;23;20030;-75
2022/08/13 04:26:30;;;;;;;5.00;4.80;;;;;;;16.21;67.24;101383.13;6017761;23;20085;-76
2022/08/13 04:28:59;;;;;;;6.00;5.70;;;;;;;16.80;65.87;101436.66;6029523;23;20085;-76
2022/08/13 04:31:27;;;;;;;4.90;4.70;;;;;;;16.87;65.10;101378.78;6041862;23;20078;-76
2022/08/13 04:34:15;;;;;;;5.45;5.15;;;;;;;17.18;63.92;101356.31;6010740;23;20053;-77
2022/08/13 04:37:03;;;;;;;5.05;4.85;;;;;;;18.11;62.80;101411.72;6034398;23;20015;-77
2022/08/13 04:39:30;;;;;;;5.20;5.00;;;;;;;18.23;62.23;101378.94;6050428;23;20093;-78
2022/08/13 04:42:17;;;;;;;5.40;5.15;;;;;;;18.03;61.02;101294.56;6054555;23;20056;-76
2022/08/13 04:44:59;;;;;;;6.45;6.05;;;;;;;18.70;59.69;101409.09;6001232;23;20079;-76
2022/08/13 04:47:30;;;;;;;4.90;4.70;;;;;;;18.28;59.41;101387.41;6042213;23;20081;-77
2022/08/13 04:49:56;;;;;;;5.22;4.97;;;;;;;17.90;60.34;101382.22;6006852;23;20031;-78
2022/08/13 04:52:27;;;;;;;5.20;5.00;;;;;;;17.78;62.01;101373.31;6019668;23;20011;-77
2022/08/13 04:54:56;;;;;;;5.75;5.45;;;;;;;17.78;62.71;101383.94;6047894;23;20018;-77
2022/08/13 04:57:23;;;;;;;5.00;4.70;;;;;;;17.90;62.30;101318.50;6042523;23;20074;-77
2022/08/13 05:00:10;;;;;;;6.15;5.85;;;;;;;18.64;60.89;101281.09;6031091;23;20023;-78
2022/08/13 05:02:41;;;;;;;5.30;5.10;;;;;;;19.73;59.27;101329.28;6036765;23;20027;-78
2022/08/13 05:05:11;;;;;;;6.35;6.05;;;;;;;20.72;57.31;101366.50;6011497;23;20032;-77
2022/08/13 05:07:51;;;;;;;5.40;5.10;;;;;;;21.17;55.00;101341.34;6037201;23;20006;-80
2022/08/13 05:10:20;;;;;;;5.57;5.28;;;;;;;21.81;53.31;101346.38;6044775;23;20034;-77
2022/08/13 05:12:58;;;;;;;5.60;5.30;;;;;;;21.73;52.35;101255.41;6026783;23;20018;-79
2022/08/13 05:15:28;;;;;;;5.40;5.20;;;;;;;22.43;51.75;101354.19;6006133;23;20034;-76
2022/08/13 05:18:17;;;;;;;6.13;5.82;;;;;;;22.42;50.87;101307.03;6027548;23;20342;-78
2022/08/13 05:20:55;;;;;;;7.28;6.68;;;;;;;23.12;50.26;101334.38;6031239;23;20596;-78
2022/08/13 05:23:23;;;;;;;5.75;5.45;;;;;;;23.44;49.65;101347.34;6032256;23;20066;-77
2022/08/13 05:26:10;;;;;;;7.32;6.95;;;;;;;23.87;48.36;101329.78;6043269;23;20038;-77
2022/08/13 05:29:04;;;;;;;6.20;5.90;;;;;;;23.91;47.44;101302.66;6023062;23;20006;-77
2022/08/13 05:31:35;;;;;;;5.90;5.60;;;;;;;23.58;47.40;101351.38;6039842;23;20168;-78
2022/08/13 05:34:24;;;;;;;6.53;5.25;;;;;;;23.89;47.66;101348.38;6028137;23;20033;-76
2022/08/13 05:36:52;;;;;;;5.80;5.50;;;;;;;24.02;47.32;101302.44;6029812;23;20628;-77
2022/08/13 05:39:40;;;;;;;5.68;5.38;;;;;;;24.68;46.56;101333.38;6036161;23;20157;-77
2022/08/13 05:42:14;;;;;;;5.55;5.32;;;;;;;24.77;46.03;101304.72;6024732;23;20090;-75
2022/08/13 05:44:44;;;;;;;5.70;5.40;;;;;;;24.48;44.80;101233.41;6026920;23;20501;-77
2022/08/13 05:47:13;;;;;;;6.90;6.60;;;;;;;23.05;44.54;101015.56;6038110;23;20007;-77
2022/08/13 05:49:42;;;;;;;6.93;6.53;;;;;;;24.69;43.72;101290.25;6037101;23;20448;-77
2022/08/13 05:52:26;;;;;;;6.10;5.78;;;;;;;24.93;42.35;101345.09;6035848;23;20109;-78
2022/08/13 05:55:11;;;;;;;6.78;6.47;;;;;;;24.87;43.51;101341.19;6014644;23;20085;-77
2022/08/13 05:57:58;;;;;;;6.22;5.82;;;;;;;25.05;43.41;101306.22;6044726;23;20031;-76
2022/08/13 06:03:24;;;;;;;6.47;6.18;;;;;;;24.94;42.97;101332.50;6030793;23;20049;-77
2022/08/13 06:06:14;;;;;;;7.50;7.00;;;;;;;24.42;43.00;101368.19;6030151;23;20657;-77
2022/08/13 06:08:49;;;;;;;5.60;5.30;;;;;;;24.06;44.49;101369.03;6014645;23;20065;-77
2022/08/13 06:11:17;;;;;;;6.38;6.07;;;;;;;23.89;44.86;101372.50;6043057;23;20019;-77
2022/08/13 06:14:04;;;;;;;6.93;6.53;;;;;;;23.19;46.62;101391.69;6026999;23;20038;-78
2022/08/13 06:16:34;;;;;;;6.30;5.90;;;;;;;23.01;47.39;101394.28;6023731;23;20022;-78
2022/08/13 06:19:26;;;;;;;6.10;5.80;;;;;;;22.65;48.18;101385.16;6026111;23;20014;-78
2022/08/13 06:22:01;;;;;;;5.90;5.50;;;;;;;22.40;49.30;101352.66;6005918;23;20027;-76
2022/08/13 06:24:35;;;;;;;5.82;5.53;;;;;;;22.66;48.09;101413.59;5992904;23;20061;-76
2022/08/13 06:27:22;;;;;;;6.22;5.82;;;;;;;22.21;48.89;101337.44;6030286;23;20038;-77
2022/08/13 06:30:11;;;;;;;6.90;6.60;;;;;;;22.61;49.17;101389.09;5999613;23;20029;-76
2022/08/13 06:32:39;;;;;;;5.70;5.40;;;;;;;22.47;49.00;101334.19;6036271;23;20101;-77
2022/08/13 06:35:28;;;;;;;5.93;5.63;;;;;;;22.54;47.40;101346.03;6000733;23;20022;-77
2022/08/13 06:38:12;;;;;;;6.07;5.78;;;;;;;22.13;46.39;101241.06;6020642;23;20258;-78
2022/08/13 06:40:48;;;;;;;5.90;5.60;;;;;;;23.24;45.14;101399.31;6038024;23;20046;-77
2022/08/13 06:43:19;;;;;;;6.30;6.00;;;;;;;23.32;45.45;101404.78;6032573;23;20055;-77
2022/08/13 06:45:47;;;;;;;5.75;5.45;;;;;;;23.46;44.99;101385.53;6031308;23;20042;-77
2022/08/13 06:48:16;;;;;;;6.53;6.03;;;;;;;23.14;44.66;101351.13;6033908;23;20015;-77
2022/08/13 06:51:01;;;;;;;6.97;6.68;;;;;;;22.84;44.52;101287.94;6023117;23;20015;-76
2022/08/13 06:53:29;;;;;;;5.93;5.63;;;;;;;23.49;44.93;101373.69;6028148;23;20149;-75
2022/08/13 06:56:23;;;;;;;5.32;5.13;;;;;;;23.57;42.82;101370.25;6026794;23;20069;-76
2022/08/13 06:59:03;;;;;;;6.63;6.25;;;;;;;23.81;42.37;101392.03;6022688;23;20446;-76
2022/08/13 07:01:46;;;;;;;5.68;5.40;;;;;;;23.77;43.01;101387.94;5999522;23;20059;-76
2022/08/13 07:04:33;;;;;;;6.00;5.70;;;;;;;23.86;42.63;101362.94;6026930;23;20679;-76
2022/08/13 07:07:03;;;;;;;7.45;7.05;;;;;;;23.78;42.85;101319.97;5992502;23;20027;-76
2022/08/13 07:09:32;;;;;;;5.65;5.35;;;;;;;24.18;43.21;101366.13;6025703;23;20096;-77
2022/08/13 07:12:12;;;;;;;6.68;6.38;;;;;;;24.37;42.53;101381.22;6014907;23;20022;-76
2022/08/13 07:14:42;;;;;;;5.65;5.35;;;;;;;24.53;42.39;101378.69;6002886;23;20043;-76
2022/08/13 07:17:14;;;;;;;6.72;6.38;;;;;;;24.43;42.19;101333.13;6020304;23;20771;-76
2022/08/13 07:19:41;;;;;;;5.90;5.60;;;;;;;24.59;42.31;101345.88;6006975;23;20089;-77
2022/08/13 07:22:28;;;;;;;5.82;5.53;;;;;;;24.39;41.27;101309.47;6026021;23;20014;-77
2022/08/13 07:25:17;;;;;;;5.65;5.45;;;;;;;24.49;41.57;101363.88;6036074;23;20017;-76
2022/08/13 07:27:50;;;;;;;5.55;5.28;;;;;;;24.46;42.44;101330.16;6033174;23;20514;-76
2022/08/13 07:30:21;;;;;;;6.10;5.80;;;;;;;24.72;41.10;101374.13;6022454;23;20697;-77
2022/08/13 07:32:52;;;;;;;5.90;5.60;;;;;;;24.20;41.45;101279.13;6028059;23;20448;-77
2022/08/13 07:35:23;;;;;;;5.82;5.53;;;;;;;24.64;42.15;101356.16;5995406;23;20047;-77
2022/08/13 07:37:52;;;;;;;5.97;5.68;;;;;;;25.05;41.60;101370.69;6026845;23;20712;-77
2022/08/13 07:40:19;;;;;;;5.90;5.60;;;;;;;24.58;41.66;101281.63;5992622;23;20022;-77
2022/08/13 07:42:49;;;;;;;5.90;5.60;;;;;;;25.24;41.00;101368.81;6026761;23;20019;-75
2022/08/13 07:45:27;;;;;;;5.90;5.60;;;;;;;24.78;41.21;101258.94;6027304;23;20031;-76
2022/08/13 07:48:14;;;;;;;6.10;5.80;;;;;;;25.60;40.64;101357.88;6014097;23;20003;-75
2022/08/13 07:51:02;;;;;;;6.50;6.20;;;;;;;25.76;40.00;101363.34;6027589;23;20097;-77
2022/08/13 07:53:34;;;;;;;5.88;5.57;;;;;;;25.76;39.40;101344.50;6015456;23;20455;-76
2022/08/13 07:56:39;;;;;;;5.90;5.60;;;;;;;25.77;39.53;101338.09;6032787;23;20022;-75
2022/08/13 07:59:14;;;;;;;6.22;5.93;;;;;;;25.59;38.78;101334.69;6012520;23;20031;-75
2022/08/13 08:01:52;;;;;;;6.15;5.85;;;;;;;25.88;38.61;101356.63;6023900;23;20053;-75
2022/08/13 08:04:41;;;;;;;6.10;5.80;;;;;;;26.09;38.88;101359.91;6023385;23;20460;-76
2022/08/13 08:07:16;;;;;;;5.70;5.45;;;;;;;25.97;37.97;101298.34;5996381;23;20034;-76
2022/08/13 08:09:43;;;;;;;5.80;5.50;;;;;;;26.20;37.35;101314.69;6023709;23;20363;-76
2022/08/13 08:14:55;;;;;;;5.78;5.47;;;;;;;26.18;37.12;101323.91;6003465;23;20047;-77
2022/08/13 08:17:26;;;;;;;6.10;5.80;;;;;;;26.49;36.89;101326.78;6025868;23;20147;-77
2022/08/13 08:20:21;;;;;;;6.30;6.00;;;;;;;26.54;37.19;101310.09;5997632;23;20552;-76
2022/08/13 08:23:11;;;;;;;7.60;6.97;;;;;;;26.50;36.05;101269.25;6033850;23;20050;-76
2022/08/13 08:25:39;;;;;;;5.95;5.65;;;;;;;26.95;36.84;101324.38;5998981;23;20058;-76
2022/08/13 08:28:30;;;;;;;6.10;5.80;;;;;;;26.49;36.33;101251.41;6027640;23;20681;-76
2022/08/13 08:31:06;;;;;;;6.53;6.22;;;;;;;27.02;35.64;101328.06;6025067;23;20700;-76
2022/08/13 08:33:55;;;;;;;5.60;5.35;;;;;;;27.33;35.56;101340.78;6024903;23;20392;-76
2022/08/13 08:36:26;;;;;;;5.65;5.43;;;;;;;27.41;35.24;101340.75;6023390;23;20038;-76
2022/08/13 08:44:41;;;;;;;6.22;5.88;;;;;;;27.17;34.77;101279.69;6025072;23;20023;-76
2022/08/13 08:47:07;;;;;;;6.55;6.25;;;;;;;27.79;34.71;101340.06;5992476;23;20015;-75
2022/08/13 08:49:36;;;;;;;6.10;5.80;;;;;;;27.00;34.57;101208.88;6030510;23;20191;-76
2022/08/13 08:52:11;;;;;;;6.63;6.32;;;;;;;28.07;34.74;101324.22;6015734;23;20054;-76
2022/08/13 08:54:43;;;;;;;5.90;5.60;;;;;;;27.93;33.81;101281.84;6003469;23;20031;-76
2022/08/13 08:57:13;;;;;;;6.30;6.00;;;;;;;28.03;32.45;101326.44;6022573;23;20027;-76
2022/08/13 08:59:41;;;;;;;6.00;5.70;;;;;;;28.03;33.70;101282.44;5991474;23;20038;-75
2022/08/13 09:02:19;;;;;;;5.80;5.50;;;;;;;28.62;32.98;101331.19;6024933;23;20571;-75
2022/08/13 09:04:54;;;;;;;6.22;5.93;;;;;;;28.68;31.96;101331.50;6012354;23;20052;-75
2022/08/13 09:07:26;;;;;;;6.10;5.80;;;;;;;28.57;31.95;101303.91;6020552;23;20320;-74
2022/08/13 09:09:57;;;;;;;6.28;5.93;;;;;;;28.88;32.38;101321.81;6008487;23;20576;-75
2022/08/13 09:12:28;;;;;;;6.25;5.95;;;;;;;28.59;31.64;101277.56;6034093;23;20034;-75
2022/08/13 09:14:57;;;;;;;6.53;6.22;;;;;;;28.73;31.77;101331.78;6016919;23;20298;-75
2022/08/13 09:17:28;;;;;;;6.00;5.70;;;;;;;29.00;32.58;101328.44;6023667;23;20019;-76
2022/08/13 09:20:12;;;;;;;6.57;6.28;;;;;;;29.06;32.28;101304.41;6023015;23;20026;-75
2022/08/13 09:22:41;;;;;;;5.90;5.60;;;;;;;29.03;31.81;101300.22;6010078;23;20468;-75
2022/08/13 09:25:22;;;;;;;5.78;5.47;;;;;;;29.14;32.42;101315.97;6024547;23;20093;-75
2022/08/13 09:27:51;;;;;;;5.80;5.50;;;;;;;28.97;32.22;101269.38;6033524;23;20069;-75
2022/08/13 09:30:41;;;;;;;6.20;5.90;;;;;;;29.36;32.41;101310.63;6019626;23;20019;-75
2022/08/13 09:33:15;;;;;;;6.30;6.00;;;;;;;29.18;31.11;101270.50;6020952;23;20086;-76
2022/08/13 09:36:01;;;;;;;6.70;6.40;;;;;;;29.34;31.70;101269.44;6016413;23;20604;-76
2022/08/13 09:38:30;;;;;;;5.80;5.50;;;;;;;29.38;31.43;101265.31;6033218;23;20027;-76
2022/08/13 09:41:06;;;;;;;6.20;5.90;;;;;;;29.80;31.51;101307.84;6006205;23;20106;-76
2022/08/13 09:43:44;;;;;;;6.15;5.75;;;;;;;29.85;31.79;101303.72;6028171;23;20046;-75
2022/08/13 09:46:16;;;;;;;5.75;5.45;;;;;;;29.75;31.48;101315.72;6023171;23;20098;-76
2022/08/13 09:48:48;;;;;;;5.97;5.68;;;;;;;29.26;31.54;101286.59;6028736;23;20029;-75
2022/08/13 09:51:19;;;;;;;6.13;5.82;;;;;;;29.38;32.16;101308.59;6026665;23;20054;-76
2022/08/13 09:54:09;;;;;;;6.30;6.00;;;;;;;29.66;30.98;101291.63;6033185;23;20069;-76
2022/08/13 09:56:37;;;;;;;6.93;6.53;;;;;;;29.24;31.65;101242.69;6015035;23;20030;-75
2022/08/13 09:59:10;;;;;;;5.82;5.53;;;;;;;29.19;31.59;101226.22;6024295;23;20630;-76
2022/08/13 10:01:41;;;;;;;5.70;5.40;;;;;;;29.42;31.07;101321.53;6011462;23;20086;-76
2022/08/13 10:04:23;;;;;;;6.30;5.90;;;;;;;28.56;31.96;101336.50;6021558;23;20045;-75
2022/08/13 10:06:55;;;;;;;6.10;5.80;;;;;;;28.18;32.16;101272.50;6013522;23;20305;-75
2022/08/13 10:09:26;;;;;;;5.78;5.47;;;;;;;28.23;32.02;101245.81;6001538;23;20153;-75
2022/08/13 10:11:59;;;;;;;6.72;6.43;;;;;;;29.00;31.66;101314.91;6007619;23;20022;-76
2022/08/13 10:14:44;;;;;;;6.25;5.95;;;;;;;29.07;31.23;101246.59;6024035;23;20057;-76
2022/08/13 10:17:23;;;;;;;5.90;5.60;;;;;;;29.39;31.31;101305.69;6029946;23;20019;-76
2022/08/13 10:20:03;;;;;;;5.72;5.38;;;;;;;28.32;31.39;101076.50;6026296;23;20029;-76
2022/08/13 10:22:29;;;;;;;5.85;5.55;;;;;;;29.04;30.21;101208.13;6023481;23;20037;-77
2022/08/13 10:24:57;;;;;;;6.88;6.47;;;;;;;30.03;31.39;101277.06;5974637;23;20027;-77
2022/08/13 10:27:25;;;;;;;6.00;5.70;;;;;;;30.03;30.11;101203.97;6042333;23;20497;-77
2022/08/13 10:30:12;;;;;;;6.10;5.80;;;;;;;30.60;30.00;101262.53;6022554;23;20035;-77
2022/08/13 10:32:59;;;;;;;6.55;6.20;;;;;;;30.33;29.29;101192.94;6029240;23;20045;-77
2022/08/13 10:35:29;;;;;;;6.15;5.85;;;;;;;30.30;28.91;101255.63;6013892;23;20258;-77
2022/08/13 10:37:57;;;;;;;5.90;5.60;;;;;;;29.71;29.87;101192.69;6018295;23;20574;-77
2022/08/13 10:40:32;;;;;;;5.88;5.57;;;;;;;30.33;29.48;101261.50;6010779;23;20032;-77
2022/08/13 10:43:04;;;;;;;6.03;5.72;;;;;;;29.49;29.25;101194.53;6024591;23;20011;-77
2022/08/13 10:45:32;;;;;;;5.90;5.60;;;;;;;29.64;30.22;101291.81;6021803;23;20015;-77
2022/08/13 10:48:01;;;;;;;5.80;5.50;;;;;;;29.68;30.39;101257.94;6000778;23;20322;-78
2022/08/13 10:50:31;;;;;;;6.00;5.70;;;;;;;29.86;29.85;101262.13;6019314;23;20027;-78
2022/08/13 10:52:59;;;;;;;6.10;5.80;;;;;;;29.93;29.77;101201.63;5997057;23;20038;-77
2022/08/13 10:55:27;;;;;;;6.60;6.30;;;;;;;30.82;30.60;101246.19;6022180;23;20445;-77
2022/08/13 10:58:13;;;;;;;5.43;5.13;;;;;;;30.77;29.43;101252.22;6016196;23;20496;-78
2022/08/13 11:01:03;;;;;;;5.80;5.50;;;;;;;30.17;29.05;101145.34;6029567;23;20019;-76
2022/08/13 11:03:38;;;;;;;8.18;7.68;;;;;;;30.46;29.95;101187.63;6003197;23;20444;-75
2022/08/13 11:06:14;;;;;;;6.00;5.70;;;;;;;30.87;29.27;101265.41;6024890;23;20059;-76
2022/08/13 11:08:41;;;;;;;6.25;5.95;;;;;;;30.74;28.82;101230.09;6021968;23;20507;-76
2022/08/13 11:11:10;;;;;;;6.20;5.90;;;;;;;30.54;29.88;101146.84;6005204;23;20039;-77
2022/08/13 11:13:57;;;;;;;6.05;5.75;;;;;;;30.70;28.16;101167.34;6014216;23;20318;-77
2022/08/13 11:19:01;;;;;;;5.85;5.55;;;;;;;31.32;28.67;101235.16;6024181;23;20022;-76
2022/08/13 11:21:30;;;;;;;6.47;6.18;;;;;;;30.56;27.71;101161.00;6027758;23;20500;-76
2022/08/13 11:24:18;;;;;;;5.78;5.47;;;;;;;30.32;27.50;101147.97;6023464;23;20033;-76
2022/08/13 11:26:47;;;;;;;5.53;5.32;;;;;;;30.61;27.98;101196.47;6009516;23;20024;-76
2022/08/13 11:29:15;;;;;;;5.97;5.68;;;;;;;31.00;27.52;101246.50;6026463;23;20051;-76
2022/08/13 11:31:41;;;;;;;6.10;5.80;;;;;;;30.94;27.18;101236.47;6017098;23;20038;-76
2022/08/13 11:34:25;;;;;;;6.60;6.30;;;;;;;31.26;27.14;101238.69;6025193;23;20021;-77
2022/08/13 11:36:52;;;;;;;6.00;5.70;;;;;;;30.60;27.42;101248.13;6027884;23;20026;-76
2022/08/13 11:39:20;;;;;;;6.28;5.97;;;;;;;30.71;28.68;101252.16;5994097;23;20011;-75
2022/08/13 11:42:04;;;;;;;6.18;5.78;;;;;;;30.52;27.49;101105.56;6026666;23;20049;-76
2022/08/13 11:44:31;;;;;;;6.28;5.97;;;;;;;30.90;27.46;101227.06;6007518;23;20096;-77
2022/08/13 11:46:58;;;;;;;5.90;5.60;;;;;;;30.56;27.77;101228.72;6028379;23;20457;-77
2022/08/13 11:49:35;;;;;;;5.80;5.50;;;;;;;31.17;28.15;101229.88;5983223;23;20828;-76
2022/08/13 11:52:08;;;;;;;5.85;5.57;;;;;;;31.06;28.64;101143.72;6019662;23;20038;-75
2022/08/13 11:54:35;;;;;;;6.20;5.90;;;;;;;31.07;27.84;101080.31;6028021;23;20031;-77
2022/08/13 11:57:05;;;;;;;5.93;5.63;;;;;;;32.00;28.29;101206.06;6022330;23;20014;-77
2022/08/13 11:59:35;;;;;;;6.15;5.85;;;;;;;32.15;27.62;101181.38;6006244;23;20485;-76
2022/08/13 12:02:12;;;;;;;5.90;5.60;;;;;;;32.32;26.61;101200.81;6034762;23;20034;-77
2022/08/13 12:04:41;;;;;;;5.95;5.65;;;;;;;32.14;26.94;101203.34;6030720;23;20017;-77
2022/08/13 12:07:08;;;;;;;6.30;5.90;;;;;;;31.50;26.72;101207.47;6018621;23;20420;-77
2022/08/13 12:09:40;;;;;;;6.15;5.75;;;;;;;31.32;26.95;101192.59;6006052;23;22309;-76
2022/08/13 12:12:14;;;;;;;5.80;5.50;;;;;;;31.07;26.70;101183.34;6029376;23;20526;-76
2022/08/13 12:14:49;;;;;;;5.90;5.60;;;;;;;30.53;25.72;101046.81;6032660;23;20210;-76
2022/08/13 12:17:16;;;;;;;5.95;5.65;;;;;;;31.88;26.75;101196.84;6031871;23;20031;-76
2022/08/13 12:20:04;;;;;;;6.20;5.80;;;;;;;31.99;26.50;101190.81;6009655;23;20134;-77
2022/08/13 12:22:45;;;;;;;;;;;;;;;32.02;26.76;101197.72;6024285;23;20056;-76
2022/08/13 12:25:13;;;;;;;5.80;5.50;;;;;;;32.14;26.39;101195.19;6038128;23;20333;-76